Portada
METAR-TAF:

METAR-TAF

Aeroports :

Laghouat, Algèria

latitud: 33-46N, longitud: 002-56E, altitud: 765 m

Observació

L'informe es va fer fa 49 minuts, a les 09:00 UTC
Vent 12 kt del Nord
Temperatura 16°C
Humitat 27%
Pressió 1020 hPa
Visibilitat 10 km o més
sense núvols per sota de 1500 mi sense presència de cumulonimbus.

METAR: DAUL 260900Z 36012KT CAVOK 16/M03 Q1020

Hora: 10:49 (09:49 UTC)

Pronòstic

L'informe es va fer fa 1 hora i 49 minuts, a les 08:00 UTC
Pronòstic vàlid del 26 a les 09 UTC al 26 a les 18 UTC
Vent 8 kt del Nord/Nord-Oest
Visibilitat 10 km o més
sense núvols per sota de 1500 mi sense presència de cumulonimbus.
Probabilitat 40% :
Temporalment
l' 26 a les 10 UTC al 26 a les 15 UTC
Vent 15 kt del Nord/Nord-Oest amb ràfegues de 25 kt

TAF: DAUL 260800Z 2609/2618 33008KT CAVOK PROB40 TEMPO 2610/2615 33015G25KT

Observacions i pronòstics meteorològics de més de 4000 aeroports (METAR i TAF).

Les estacions disponibles són els punts grocs i vermells al mapa.

Posi el ratolí al punt desitjat per veure el nom de l'estació.

Feu clic per veure les observacions i els pronòstics meteorològics.

Per canviar el mapa: feu clic els botons verds amb una creu de color negre per apropar; al botó verd amb un guió per allunyar la imatge; o en les fletxes verdes per a mapes adjacents.


METAR-TAF: